Time;durP1;ratioP1;P1;durP2;ratioP2;P2;SDS_P1;SDS_P2;PMS_P1;PMS_P2;Temp;Humidity;BMP_temperature;BMP_pressure;BME280_temperature;BME280_humidity;BME280_pressure;Samples;Min_cycle;Max_cycle;Signal;HPM_P1;HPM_P2
2022/04/28 00:01:06;;;;;;;27.20;18.15;;;17.60;49.50;;;;;;7372692;19;20078;-78
2022/04/28 00:03:35;;;;;;;30.80;17.48;;;17.60;49.40;;;;;;7373946;19;20300;-78
2022/04/28 00:06:04;;;;;;;28.50;17.65;;;17.60;49.40;;;;;;7375228;19;20428;-78
2022/04/28 00:08:35;;;;;;;29.75;17.75;;;17.50;49.50;;;;;;7374800;19;20548;-78
2022/04/28 00:11:05;;;;;;;27.02;17.15;;;17.50;49.60;;;;;;7375187;19;20025;-78
2022/04/28 00:13:33;;;;;;;31.42;17.45;;;17.50;49.50;;;;;;7395119;19;20379;-78
2022/04/28 00:16:02;;;;;;;31.63;18.15;;;17.60;49.50;;;;;;7375085;19;20014;-78
2022/04/28 00:18:31;;;;;;;29.10;18.30;;;17.60;49.50;;;;;;7373412;19;20714;-78
2022/04/28 00:21:00;;;;;;;28.27;17.02;;;17.50;49.40;;;;;;7373048;19;20564;-78
2022/04/28 00:23:28;;;;;;;30.42;17.88;;;17.50;49.40;;;;;;7372439;19;20086;-78
2022/04/28 00:26:00;;;;;;;33.83;17.90;;;17.40;49.40;;;;;;7395659;19;20771;-78
2022/04/28 00:28:29;;;;;;;28.73;17.27;;;17.40;49.60;;;;;;7372726;19;20057;-78
2022/04/28 00:30:57;;;;;;;24.27;16.95;;;17.40;49.60;;;;;;7373555;19;20015;-78
2022/04/28 00:33:27;;;;;;;30.75;18.17;;;17.40;49.60;;;;;;7374193;19;20558;-79
2022/04/28 00:35:57;;;;;;;31.23;16.90;;;17.40;49.60;;;;;;7372182;19;20308;-78
2022/04/28 00:38:25;;;;;;;26.08;17.48;;;17.40;49.60;;;;;;7371069;19;20041;-78
2022/04/28 00:40:54;;;;;;;29.63;17.00;;;17.30;49.60;;;;;;7388725;19;20029;-78
2022/04/28 00:43:28;;;;;;;28.23;17.08;;;17.30;49.60;;;;;;7372539;19;20573;-78
2022/04/28 00:45:57;;;;;;;27.20;16.77;;;17.40;49.60;;;;;;7373628;19;20025;-77
2022/04/28 00:51:10;;;;;;;25.60;17.65;;;17.30;49.40;;;;;;7373305;19;20014;-78
2022/04/28 00:53:44;;;;;;;28.85;17.88;;;17.30;49.50;;;;;;7372953;19;20018;-78
2022/04/28 00:56:13;;;;;;;30.65;18.13;;;17.20;49.50;;;;;;7373411;19;20019;-78
2022/04/28 00:58:45;;;;;;;27.75;17.45;;;17.10;49.70;;;;;;7393343;19;20021;-78
2022/04/28 01:01:13;;;;;;;;;;;17.00;49.90;;;;;;7372139;19;20166;-78
2022/04/28 01:03:42;;;;;;;31.23;18.38;;;17.00;49.90;;;;;;7373244;19;19930;-78
2022/04/28 01:06:11;;;;;;;29.38;18.00;;;16.90;49.90;;;;;;7373854;19;20517;-78
2022/04/28 01:08:39;;;;;;;31.42;18.33;;;16.90;50.00;;;;;;7372127;19;20037;-78
2022/04/28 01:11:08;;;;;;;27.50;17.90;;;16.90;50.00;;;;;;7371381;19;20518;-78
2022/04/28 01:13:37;;;;;;;30.45;18.30;;;16.90;49.90;;;;;;7391381;19;20085;-78
2022/04/28 01:16:09;;;;;;;34.63;18.05;;;16.80;50.00;;;;;;7371257;19;20090;-78
2022/04/28 01:18:37;;;;;;;;;;;16.90;50.10;;;;;;7369845;19;20121;-77
2022/04/28 01:21:10;;;;;;;28.23;18.17;;;16.90;50.10;;;;;;7370766;19;20375;-78
2022/04/28 01:23:39;;;;;;;25.80;16.95;;;16.90;49.90;;;;;;7371560;19;20352;-78
2022/04/28 01:26:08;;;;;;;28.58;18.77;;;16.90;49.90;;;;;;7371205;19;20018;-77
2022/04/28 01:28:37;;;;;;;30.90;18.38;;;17.00;50.00;;;;;;7391872;19;20109;-78
2022/04/28 01:31:07;;;;;;;31.13;19.02;;;17.00;49.90;;;;;;7369194;19;20352;-78
2022/04/28 01:33:35;;;;;;;28.65;18.55;;;16.90;49.70;;;;;;7369163;19;20021;-78
2022/04/28 01:36:04;;;;;;;30.38;19.08;;;17.00;49.80;;;;;;7367705;19;20014;-77
2022/04/28 01:38:36;;;;;;;27.85;18.23;;;17.00;49.80;;;;;;7371007;19;20018;-78
2022/04/28 01:41:05;;;;;;;31.48;18.17;;;17.00;49.70;;;;;;7368259;19;20322;-78
2022/04/28 01:43:34;;;;;;;31.42;19.33;;;17.00;49.70;;;;;;7392593;19;20079;-78
2022/04/28 01:46:03;;;;;;;33.90;19.50;;;17.00;49.70;;;;;;7371570;19;20501;-78
2022/04/28 01:48:31;;;;;;;37.35;19.60;;;16.90;49.80;;;;;;7370347;19;20029;-78
2022/04/28 01:56:25;;;;;;;35.45;19.42;;;16.90;49.90;;;;;;7378496;19;20110;-78
2022/04/28 01:58:54;;;;;;;30.80;19.23;;;16.80;50.00;;;;;;7398533;19;20034;-78
2022/04/28 02:01:22;;;;;;;37.35;20.40;;;16.80;50.00;;;;;;7377678;19;20018;-78
2022/04/28 02:03:51;;;;;;;33.30;19.92;;;16.80;50.00;;;;;;7378123;19;20015;-78
2022/04/28 02:06:20;;;;;;;34.78;18.65;;;16.80;50.10;;;;;;7378761;19;20559;-77
2022/04/28 02:08:51;;;;;;;35.45;20.00;;;16.80;50.00;;;;;;7378017;19;20015;-76
2022/04/28 02:11:20;;;;;;;28.98;19.58;;;16.80;50.00;;;;;;7376784;19;20019;-77
2022/04/28 02:13:49;;;;;;;30.33;19.55;;;16.80;50.00;;;;;;7398680;19;20044;-79
2022/04/28 02:16:18;;;;;;;34.20;19.38;;;16.70;50.10;;;;;;7376545;19;20018;-77
2022/04/28 02:18:47;;;;;;;32.17;19.75;;;16.70;50.10;;;;;;7378042;19;20018;-77
2022/04/28 02:21:15;;;;;;;35.08;19.65;;;16.70;50.10;;;;;;7376526;19;20018;-77
2022/04/28 02:23:44;;;;;;;33.55;19.60;;;16.70;50.10;;;;;;7377858;19;20014;-77
2022/04/28 02:26:15;;;;;;;31.10;19.45;;;16.70;50.20;;;;;;7378728;19;20386;-77
2022/04/28 02:28:44;;;;;;;31.67;19.92;;;16.70;50.20;;;;;;7395509;19;20010;-77
2022/04/28 02:31:13;;;;;;;29.98;20.30;;;16.70;50.40;;;;;;7373862;19;20022;-77
2022/04/28 02:33:41;;;;;;;30.92;19.70;;;16.70;50.30;;;;;;7376217;19;20078;-77
2022/04/28 02:36:12;;;;;;;32.15;19.48;;;16.60;50.30;;;;;;7376740;19;20066;-77
2022/04/28 02:38:41;;;;;;;34.03;19.40;;;16.60;50.30;;;;;;7377316;19;20038;-77
2022/04/28 02:41:10;;;;;;;34.78;20.30;;;16.60;50.40;;;;;;7373947;19;20805;-77
2022/04/28 02:43:41;;;;;;;33.97;19.88;;;16.60;50.50;;;;;;7398343;19;20394;-77
2022/04/28 02:46:10;;;;;;;35.00;20.05;;;16.50;50.40;;;;;;7377551;19;20117;-77
2022/04/28 02:48:39;;;;;;;30.73;19.50;;;16.50;50.50;;;;;;7374031;19;20015;-77
2022/04/28 02:51:07;;;;;;;33.80;19.75;;;16.50;50.50;;;;;;7375162;19;20021;-77
2022/04/28 02:53:36;;;;;;;35.45;21.15;;;16.50;50.40;;;;;;7373701;19;20565;-77
2022/04/28 02:56:06;;;;;;;31.30;20.70;;;16.50;50.50;;;;;;7377147;19;20466;-77
2022/04/28 02:58:36;;;;;;;37.10;20.92;;;16.50;50.70;;;;;;7403192;19;20070;-77
2022/04/28 03:01:07;;;;;;;37.08;20.52;;;16.40;50.60;;;;;;7373246;19;20019;-77
2022/04/28 03:03:36;;;;;;;32.38;19.92;;;16.40;50.70;;;;;;7376115;19;20020;-77
2022/04/28 03:11:28;;;;;;;37.97;21.05;;;16.30;51.00;;;;;;7376597;19;20018;-77
2022/04/28 03:13:56;;;;;;;36.22;20.20;;;16.30;51.10;;;;;;7396872;19;20422;-78
2022/04/28 03:16:28;;;;;;;34.35;19.90;;;16.10;51.00;;;;;;7376014;19;20018;-77
2022/04/28 03:18:57;;;;;;;34.13;19.77;;;16.10;51.20;;;;;;7375389;19;20109;-77
2022/04/28 03:21:26;;;;;;;39.25;21.08;;;16.10;51.40;;;;;;7374128;19;20018;-78
2022/04/28 03:23:55;;;;;;;36.45;21.67;;;16.10;51.30;;;;;;7375306;19;20691;-77
2022/04/28 03:26:23;;;;;;;32.38;20.42;;;16.10;51.30;;;;;;7370818;19;20035;-77
2022/04/28 03:28:52;;;;;;;36.75;20.70;;;16.00;51.50;;;;;;7394635;19;20029;-77
2022/04/28 03:31:21;;;;;;;36.03;20.42;;;15.90;51.50;;;;;;7372002;19;22495;-78
2022/04/28 03:33:52;;;;;;;37.45;20.02;;;15.90;51.50;;;;;;7375483;19;20015;-77
2022/04/28 03:39:05;;;;;;;39.58;20.50;;;16.00;51.70;;;;;;7372794;19;19926;-77
2022/04/28 03:41:33;;;;;;;37.70;20.90;;;15.90;51.70;;;;;;7372255;19;20010;-77
2022/04/28 03:44:02;;;;;;;30.85;19.77;;;15.80;51.70;;;;;;7371668;19;20022;-77
2022/04/28 03:46:31;;;;;;;37.15;20.23;;;15.80;51.90;;;;;;7392147;19;20411;-78
2022/04/28 03:49:02;;;;;;;43.70;20.42;;;15.80;52.00;;;;;;7371384;19;20010;-78
2022/04/28 03:51:31;;;;;;;;;;;15.70;52.00;;;;;;7374619;19;20015;-77
2022/04/28 03:54:01;;;;;;;37.70;20.77;;;15.70;52.10;;;;;;7374059;19;20299;-78
2022/04/28 03:56:31;;;;;;;36.40;19.77;;;15.60;52.20;;;;;;7375015;19;20863;-77
2022/04/28 03:59:00;;;;;;;37.33;20.65;;;15.60;52.30;;;;;;7382771;19;20022;-76
2022/04/28 04:01:29;;;;;;;36.63;20.52;;;15.60;52.30;;;;;;7390753;19;20026;-77
2022/04/28 04:03:58;;;;;;;34.30;19.75;;;15.70;52.30;;;;;;7373514;19;20014;-78
2022/04/28 04:06:31;;;;;;;40.45;20.45;;;15.70;52.30;;;;;;7373167;19;20018;-76
2022/04/28 04:08:59;;;;;;;37.53;21.27;;;15.60;52.20;;;;;;7372272;19;20581;-76
2022/04/28 04:11:28;;;;;;;38.22;20.58;;;15.50;52.50;;;;;;7372078;19;20074;-79
2022/04/28 04:13:57;;;;;;;30.70;19.48;;;15.50;52.50;;;;;;7396229;19;20511;-79
2022/04/28 04:16:25;;;;;;;38.88;20.42;;;15.50;52.70;;;;;;7372126;19;20475;-77
2022/04/28 04:18:54;;;;;;;35.63;20.00;;;15.60;52.60;;;;;;7372482;19;20031;-77
2022/04/28 04:21:23;;;;;;;32.30;19.80;;;15.60;52.50;;;;;;7370861;19;20026;-77
2022/04/28 04:23:54;;;;;;;38.30;21.02;;;15.60;52.70;;;;;;7373580;19;20127;-77
2022/04/28 04:26:23;;;;;;;38.80;20.67;;;15.60;53.10;;;;;;7370467;19;20051;-76
2022/04/28 04:28:51;;;;;;;35.17;20.48;;;15.50;52.50;;;;;;7396283;19;20033;-77
2022/04/28 04:34:01;;;;;;;37.63;19.83;;;15.60;52.70;;;;;;7372642;19;20022;-77
2022/04/28 04:36:30;;;;;;;37.25;20.73;;;15.60;52.60;;;;;;7373520;19;20018;-77
2022/04/28 04:39:01;;;;;;;36.20;19.55;;;15.60;52.50;;;;;;7372461;19;20048;-77
2022/04/28 04:41:30;;;;;;;35.58;20.80;;;15.60;52.50;;;;;;7371141;19;20009;-77
2022/04/28 04:43:59;;;;;;;44.50;21.02;;;15.50;52.50;;;;;;7388692;19;20026;-76
2022/04/28 04:46:28;;;;;;;37.72;20.35;;;15.50;52.60;;;;;;7394304;19;20077;-77
2022/04/28 04:48:56;;;;;;;40.28;20.38;;;15.50;52.60;;;;;;7372441;19;20079;-77
2022/04/28 04:51:25;;;;;;;32.92;20.58;;;15.40;52.70;;;;;;7373286;19;20023;-77
2022/04/28 04:53:54;;;;;;;36.10;20.02;;;15.40;52.80;;;;;;7372049;19;20352;-76
2022/04/28 04:56:25;;;;;;;41.92;21.30;;;15.40;52.80;;;;;;7371397;19;20018;-77
2022/04/28 04:58:54;;;;;;;38.78;20.58;;;15.50;52.90;;;;;;7390769;19;20459;-77
2022/04/28 05:01:22;;;;;;;37.67;20.63;;;15.50;52.80;;;;;;7370296;19;20040;-77
2022/04/28 05:03:51;;;;;;;35.15;19.67;;;15.50;52.90;;;;;;7371933;19;20014;-76
2022/04/28 05:06:20;;;;;;;38.55;21.25;;;15.50;53.30;;;;;;7368639;19;20347;-77
2022/04/28 05:08:49;;;;;;;42.72;21.50;;;15.40;53.60;;;;;;7371116;19;20031;-76
2022/04/28 05:11:18;;;;;;;38.47;20.30;;;15.40;54.20;;;;;;7371492;19;20044;-76
2022/04/28 05:13:50;;;;;;;37.22;21.48;;;15.40;53.20;;;;;;7391963;19;20017;-76
2022/04/28 05:16:18;;;;;;;33.78;20.77;;;15.40;53.20;;;;;;7371451;19;20109;-78
2022/04/28 05:18:47;;;;;;;35.42;20.63;;;15.40;53.20;;;;;;7371751;19;20037;-76
2022/04/28 05:21:16;;;;;;;44.78;21.00;;;15.40;53.20;;;;;;7371920;19;20094;-77
2022/04/28 05:23:45;;;;;;;40.80;20.35;;;15.40;53.30;;;;;;7373030;19;20070;-76
2022/04/28 05:26:14;;;;;;;44.22;20.00;;;15.40;53.30;;;;;;7371794;19;20045;-79
2022/04/28 05:28:43;;;;;;;42.15;22.33;;;15.40;53.30;;;;;;7389316;19;20051;-79
2022/04/28 05:31:14;;;;;;;38.17;20.77;;;15.40;53.20;;;;;;7369537;19;20014;-77
2022/04/28 05:33:43;;;;;;;;;;;15.40;53.20;;;;;;7371187;19;20011;-78
2022/04/28 05:36:12;;;;;;;38.17;21.55;;;15.50;53.40;;;;;;7373286;19;19921;-78
2022/04/28 05:38:41;;;;;;;37.63;21.17;;;15.50;53.20;;;;;;7371847;19;20062;-78
2022/04/28 05:41:10;;;;;;;37.55;21.88;;;15.50;53.20;;;;;;7371709;19;20010;-78
2022/04/28 05:46:25;;;;;;;43.95;21.27;;;15.60;53.30;;;;;;7369845;19;20015;-78
2022/04/28 05:48:54;;;;;;;44.35;22.15;;;15.60;53.20;;;;;;7370689;19;20021;-78
2022/04/28 05:51:23;;;;;;;44.65;21.45;;;15.70;53.20;;;;;;7370030;19;20035;-78
2022/04/28 05:53:52;;;;;;;33.88;20.98;;;15.70;53.10;;;;;;7370292;19;20038;-78
2022/04/28 05:56:21;;;;;;;33.50;20.88;;;15.80;53.10;;;;;;7371876;19;20090;-77
2022/04/28 05:58:49;;;;;;;37.08;21.45;;;15.80;53.00;;;;;;7392684;19;20021;-77
2022/04/28 06:01:18;;;;;;;36.42;22.30;;;15.90;53.00;;;;;;7370068;19;20026;-77
2022/04/28 06:03:49;;;;;;;41.22;21.60;;;15.90;52.90;;;;;;7371744;19;20015;-77
2022/04/28 06:06:18;;;;;;;36.40;20.63;;;15.90;52.80;;;;;;7371750;19;20031;-78
2022/04/28 06:08:47;;;;;;;36.63;21.25;;;16.00;52.80;;;;;;7371466;19;20031;-78
2022/04/28 06:11:19;;;;;;;38.75;21.95;;;16.00;52.70;;;;;;7369865;19;20042;-78
2022/04/28 06:13:48;;;;;;;33.67;21.05;;;16.10;52.80;;;;;;7392692;19;20100;-78
2022/04/28 06:16:17;;;;;;;36.63;21.25;;;16.10;52.50;;;;;;7371621;19;20010;-78
2022/04/28 06:18:48;;;;;;;38.63;21.95;;;16.20;52.50;;;;;;7372016;19;20023;-78
2022/04/28 06:21:17;;;;;;;34.38;21.25;;;16.30;52.40;;;;;;7368730;19;20019;-78
2022/04/28 06:23:47;;;;;;;37.90;21.42;;;16.30;52.30;;;;;;7372154;19;20061;-79
2022/04/28 06:26:16;;;;;;;37.53;22.45;;;16.30;52.50;;;;;;7369302;19;20074;-79
2022/04/28 06:28:44;;;;;;;34.53;21.08;;;16.40;52.50;;;;;;7390083;19;20029;-78
2022/04/28 06:31:13;;;;;;;35.72;19.98;;;16.40;52.30;;;;;;7371530;19;20031;-78
2022/04/28 06:33:43;;;;;;;44.30;21.90;;;16.50;52.50;;;;;;7371349;19;20086;-78
2022/04/28 06:36:17;;;;;;;86.57;28.02;;;16.60;52.20;;;;;;7372019;19;20023;-79
2022/04/28 06:38:46;;;;;;;58.25;24.75;;;16.70;52.30;;;;;;7374949;19;20090;-79
2022/04/28 06:41:14;;;;;;;76.60;25.75;;;16.70;52.70;;;;;;7379313;19;20090;-79
2022/04/28 06:43:43;;;;;;;106.38;27.08;;;16.80;52.20;;;;;;7397914;19;20035;-78
2022/04/28 06:46:15;;;;;;;45.63;22.67;;;16.90;52.20;;;;;;7376824;19;20027;-79
2022/04/28 06:48:44;;;;;;;31.02;20.20;;;17.00;51.90;;;;;;7380170;19;20017;-79
2022/04/28 06:51:12;;;;;;;31.75;20.90;;;17.00;51.40;;;;;;7378946;19;20016;-79
2022/04/28 06:53:44;;;;;;;29.70;18.50;;;17.10;51.40;;;;;;7378902;19;20015;-79
2022/04/28 06:56:13;;;;;;;30.83;19.48;;;17.10;51.30;;;;;;7376583;19;20118;-79
2022/04/28 06:58:42;;;;;;;31.02;19.42;;;17.20;51.40;;;;;;7398703;19;20323;-79
2022/04/28 07:01:11;;;;;;;30.25;19.60;;;17.30;51.30;;;;;;7368293;19;20928;-76
2022/04/28 07:03:40;;;;;;;27.45;18.75;;;17.40;50.90;;;;;;7371098;19;20056;-76
2022/04/28 07:06:09;;;;;;;33.05;19.77;;;17.30;50.60;;;;;;7374373;19;20055;-79
2022/04/28 07:08:37;;;;;;;28.50;20.08;;;17.40;50.40;;;;;;7374955;19;20087;-79
2022/04/28 07:11:09;;;;;;;41.03;19.50;;;17.40;50.50;;;;;;7374671;19;20180;-77
2022/04/28 07:13:39;;;;;;;48.13;20.20;;;17.50;50.30;;;;;;7399601;19;20086;-77
2022/04/28 07:16:08;;;;;;;36.45;20.65;;;17.50;50.00;;;;;;7373621;19;20331;-78
2022/04/28 07:18:40;;;;;;;29.92;19.83;;;17.60;50.10;;;;;;7373475;19;20540;-77
2022/04/28 07:21:09;;;;;;;32.13;20.05;;;17.70;50.30;;;;;;7371654;19;20018;-77
2022/04/28 07:23:37;;;;;;;29.13;20.05;;;17.70;50.00;;;;;;7374113;19;20019;-77
2022/04/28 07:26:09;;;;;;;28.58;19.15;;;17.70;49.60;;;;;;7373291;19;20074;-78
2022/04/28 07:28:37;;;;;;;32.60;19.83;;;17.80;49.70;;;;;;7397179;19;20097;-77
2022/04/28 07:31:06;;;;;;;31.80;19.25;;;17.90;49.80;;;;;;7374981;19;20595;-78
2022/04/28 07:33:35;;;;;;;30.65;19.65;;;18.00;49.70;;;;;;7374552;19;20106;-76
2022/04/28 07:36:04;;;;;;;30.30;19.08;;;17.90;49.50;;;;;;7372637;19;20742;-77
2022/04/28 07:38:33;;;;;;;34.33;19.63;;;18.00;49.40;;;;;;7373839;19;20102;-78
2022/04/28 07:41:03;;;;;;;26.02;18.75;;;18.00;49.30;;;;;;7368172;19;20135;-77
2022/04/28 07:43:35;;;;;;;39.10;20.20;;;18.10;49.50;;;;;;7397123;19;20090;-78
2022/04/28 07:46:04;;;;;;;26.85;18.25;;;18.20;49.60;;;;;;7374977;19;20442;-79
2022/04/28 07:48:32;;;;;;;32.20;19.50;;;18.30;49.20;;;;;;7374861;19;20029;-78
2022/04/28 07:51:01;;;;;;;34.40;19.58;;;18.40;48.90;;;;;;7373669;19;20015;-78
2022/04/28 07:53:31;;;;;;;29.90;17.83;;;18.40;49.00;;;;;;7373561;19;20022;-79
2022/04/28 07:58:44;;;;;;;36.90;19.35;;;18.60;49.40;;;;;;7399306;19;20014;-78
2022/04/28 08:01:18;;;;;;;33.40;18.27;;;18.60;48.50;;;;;;7372969;19;20010;-79
2022/04/28 08:03:47;;;;;;;26.33;18.65;;;18.60;48.10;;;;;;7374147;19;20018;-77
2022/04/28 08:06:15;;;;;;;23.15;16.25;;;18.60;48.30;;;;;;7374317;19;20093;-79
2022/04/28 08:08:45;;;;;;;25.92;16.05;;;18.60;47.70;;;;;;7375242;19;20014;-77
2022/04/28 08:11:14;;;;;;;28.40;16.23;;;18.60;48.10;;;;;;7374398;19;20338;-78
2022/04/28 08:13:45;;;;;;;22.80;15.70;;;18.70;48.00;;;;;;7396466;19;20062;-78
2022/04/28 08:16:14;;;;;;;25.13;16.73;;;18.70;48.10;;;;;;7372470;19;20040;-78
2022/04/28 08:18:43;;;;;;;27.25;16.63;;;18.80;47.80;;;;;;7370383;19;20744;-77
2022/04/28 08:21:11;;;;;;;23.77;16.70;;;18.80;47.70;;;;;;7373603;19;20031;-77
2022/04/28 08:23:40;;;;;;;28.05;15.95;;;18.80;47.70;;;;;;7375196;19;20086;-78
2022/04/28 08:26:09;;;;;;;26.83;14.73;;;18.90;48.00;;;;;;7374831;19;20020;-78
2022/04/28 08:28:37;;;;;;;23.35;14.43;;;18.90;47.90;;;;;;7395714;19;20327;-79
2022/04/28 08:31:09;;;;;;;20.60;14.57;;;18.90;47.90;;;;;;7371967;19;20011;-77
2022/04/28 08:33:38;;;;;;;22.80;14.32;;;19.00;47.90;;;;;;7371871;19;20018;-78
2022/04/28 08:36:07;;;;;;;25.40;15.55;;;19.00;47.80;;;;;;7372314;19;20085;-77
2022/04/28 08:38:35;;;;;;;23.65;14.93;;;19.10;47.80;;;;;;7372606;19;20010;-77
2022/04/28 08:41:06;;;;;;;25.88;14.43;;;19.10;47.40;;;;;;7373359;19;20451;-78
2022/04/28 08:43:37;;;;;;;19.90;13.73;;;19.10;47.00;;;;;;7395813;19;20036;-79
2022/04/28 08:48:53;;;;;;;20.20;12.60;;;19.10;47.10;;;;;;7374195;19;20029;-78
2022/04/28 08:51:24;;;;;;;19.92;13.85;;;19.10;47.30;;;;;;7372528;19;20014;-78
2022/04/28 08:53:54;;;;;;;37.70;13.45;;;19.10;47.10;;;;;;7372155;19;20045;-78
2022/04/28 08:56:27;;;;;;;18.67;12.43;;;19.20;47.30;;;;;;7369119;19;20125;-78
2022/04/28 08:58:56;;;;;;;28.20;12.95;;;19.20;47.20;;;;;;7396012;19;20369;-78
2022/04/28 09:01:29;;;;;;;26.67;12.73;;;19.20;46.90;;;;;;7371857;19;20010;-78
2022/04/28 09:03:58;;;;;;;16.83;12.07;;;19.30;46.90;;;;;;7372339;19;20033;-78
2022/04/28 09:06:29;;;;;;;15.20;11.57;;;19.40;46.80;;;;;;7373025;19;20014;-78
2022/04/28 09:09:00;;;;;;;19.15;11.73;;;19.40;47.00;;;;;;7371866;19;20021;-78
2022/04/28 09:11:32;;;;;;;17.17;11.60;;;19.50;47.10;;;;;;7371501;19;20585;-79
2022/04/28 09:14:14;;;;;;;20.48;12.65;;;19.50;47.00;;;;;;7379546;19;20081;-78
2022/04/28 09:16:51;;;;;;;15.55;10.90;;;19.50;46.50;;;;;;7394808;19;20018;-79
2022/04/28 09:19:23;;;;;;;14.82;10.90;;;19.50;46.50;;;;;;7371578;19;20085;-79
2022/04/28 09:21:53;;;;;;;13.80;11.25;;;19.50;46.40;;;;;;7371507;19;20158;-78
2022/04/28 09:24:23;;;;;;;20.20;11.95;;;19.60;46.30;;;;;;7370673;19;20024;-79
2022/04/28 09:26:53;;;;;;;14.07;10.68;;;19.50;46.10;;;;;;7373623;19;20015;-79
2022/04/28 09:29:23;;;;;;;15.55;10.18;;;19.60;46.30;;;;;;7371035;19;20007;-78
2022/04/28 09:31:55;;;;;;;20.73;10.98;;;19.70;46.20;;;;;;7394888;19;20117;-78
2022/04/28 09:34:27;;;;;;;17.42;11.18;;;19.70;45.90;;;;;;7370774;19;20014;-78
2022/04/28 09:36:56;;;;;;;19.98;10.80;;;19.80;45.90;;;;;;7371605;19;20082;-78
2022/04/28 09:44:55;;;;;;;17.83;9.75;;;20.00;46.40;;;;;;7372591;19;20051;-78
2022/04/28 09:47:29;;;;;;;24.25;10.25;;;20.10;46.20;;;;;;7371090;19;20018;-78
2022/04/28 09:49:58;;;;;;;17.92;11.07;;;20.20;46.10;;;;;;7393129;19;20026;-76
2022/04/28 09:52:32;;;;;;;14.50;10.45;;;20.30;45.50;;;;;;7371656;19;20010;-76
2022/04/28 09:55:04;;;;;;;13.05;9.80;;;20.40;45.10;;;;;;7370081;19;20023;-77
2022/04/28 09:57:33;;;;;;;16.77;10.93;;;20.30;45.20;;;;;;7371785;19;20416;-77
2022/04/28 10:00:02;;;;;;;15.10;9.77;;;20.30;44.80;;;;;;7370557;19;20034;-76
2022/04/28 10:02:33;;;;;;;13.55;9.77;;;20.30;45.40;;;;;;7370505;19;20039;-76
2022/04/28 10:05:03;;;;;;;16.63;9.63;;;20.40;45.50;;;;;;7369191;19;20027;-76
2022/04/28 10:07:34;;;;;;;12.52;8.77;;;20.50;45.20;;;;;;7391551;19;20014;-75
2022/04/28 10:10:03;;;;;;;16.83;8.90;;;20.50;45.50;;;;;;7370089;19;20018;-74
2022/04/28 10:12:32;;;;;;;15.45;8.80;;;20.60;44.90;;;;;;7369682;19;20122;-75
2022/04/28 10:15:03;;;;;;;13.90;8.68;;;20.70;44.80;;;;;;7380149;19;20407;-77
2022/04/28 10:17:38;;;;;;;14.77;11.05;;;20.70;44.30;;;;;;7380108;19;20025;-75
2022/04/28 10:20:11;;;;;;;13.70;9.63;;;20.70;44.60;;;;;;7378500;19;20031;-75
2022/04/28 10:22:42;;;;;;;11.25;8.38;;;20.80;43.80;;;;;;7397063;19;20411;-74
2022/04/28 10:33:23;;;;;;;17.77;8.75;;;21.00;44.20;;;;;;7406479;19;19915;-76
2022/04/28 10:35:57;;;;;;;12.20;8.52;;;21.00;43.40;;;;;;7407004;19;20090;-76
2022/04/28 10:38:30;;;;;;;18.38;8.13;;;21.00;43.50;;;;;;7404823;19;20519;-75
2022/04/28 10:41:02;;;;;;;10.95;7.25;;;21.10;43.40;;;;;;7426319;19;20002;-76
2022/04/28 10:43:38;;;;;;;12.90;7.18;;;21.00;42.70;;;;;;7405001;19;20014;-76
2022/04/28 10:46:36;;;;;;;11.65;7.55;;;21.00;43.30;;;;;;7387639;19;20011;-76
2022/04/28 10:49:08;;;;;;;10.73;8.05;;;21.00;43.60;;;;;;7383599;19;20014;-76
2022/04/28 10:51:37;;;;;;;10.85;7.40;;;21.10;43.80;;;;;;7382503;19;20011;-77
2022/04/28 10:54:11;;;;;;;12.20;7.93;;;21.10;43.60;;;;;;7381670;19;20006;-76
2022/04/28 10:56:58;;;;;;;9.68;6.70;;;21.10;43.10;;;;;;7378837;19;20743;-76
2022/04/28 10:59:40;;;;;;;11.55;6.65;;;21.20;43.40;;;;;;7375150;19;20014;-77
2022/04/28 11:02:41;;;;;;;8.50;6.15;;;21.30;43.10;;;;;;7380721;19;20022;-77
2022/04/28 11:05:40;;;;;;;8.43;5.22;;;21.40;42.50;;;;;;7384768;19;20043;-77
2022/04/28 11:08:26;;;;;;;7.90;5.10;;;21.50;41.80;;;;;;7374937;19;21417;-77
2022/04/28 11:11:11;;;;;;;9.02;5.28;;;21.70;41.90;;;;;;7397241;19;20023;-77
2022/04/28 11:13:43;;;;;;;12.45;5.30;;;21.80;42.30;;;;;;7375332;19;20466;-77
2022/04/28 11:16:12;;;;;;;6.88;4.50;;;21.90;41.30;;;;;;7375586;19;20355;-77
2022/04/28 11:18:42;;;;;;;13.00;5.20;;;22.00;40.80;;;;;;7371798;19;20082;-77
2022/04/28 11:21:12;;;;;;;6.67;4.87;;;22.00;39.70;;;;;;7373124;19;20046;-77
2022/04/28 11:23:46;;;;;;;7.97;4.70;;;21.90;39.40;;;;;;7373431;19;20014;-77
2022/04/28 11:26:15;;;;;;;9.40;4.60;;;21.90;39.50;;;;;;7370133;19;20101;-77
2022/04/28 11:28:45;;;;;;;9.15;4.10;;;21.90;39.50;;;;;;7397294;19;20018;-77
2022/04/28 11:31:16;;;;;;;10.50;4.32;;;21.90;39.90;;;;;;7374938;19;20021;-77
2022/04/28 11:33:47;;;;;;;6.53;4.55;;;21.90;39.50;;;;;;7372302;19;20010;-77
2022/04/28 11:36:23;;;;;;;8.18;4.50;;;22.00;39.90;;;;;;7372823;19;20134;-77
2022/04/28 11:38:57;;;;;;;5.03;3.80;;;22.10;39.40;;;;;;7373620;19;20007;-77
2022/04/28 11:41:34;;;;;;;7.90;3.67;;;22.30;39.50;;;;;;7375929;19;20038;-77
2022/04/28 11:44:07;;;;;;;10.27;3.70;;;22.40;39.30;;;;;;7373806;19;20011;-77
2022/04/28 11:46:37;;;;;;;6.75;3.40;;;22.40;38.20;;;;;;7397739;19;20018;-77
2022/04/28 11:49:06;;;;;;;7.60;3.53;;;22.50;36.50;;;;;;7375438;19;20585;-77
2022/04/28 11:51:37;;;;;;;5.38;3.03;;;22.50;36.20;;;;;;7375451;19;20340;-77
2022/04/28 11:54:22;;;;;;;7.90;3.93;;;22.50;35.50;;;;;;7375264;19;20488;-76
2022/04/28 11:56:51;;;;;;;6.90;4.05;;;22.50;35.00;;;;;;7369424;19;20255;-77
2022/04/28 11:59:21;;;;;;;6.88;3.60;;;22.50;35.10;;;;;;7374293;19;20483;-77
2022/04/28 12:01:50;;;;;;;5.50;2.83;;;22.50;35.00;;;;;;7394446;19;20255;-78
2022/04/28 12:04:18;;;;;;;4.72;3.47;;;22.50;35.30;;;;;;7371192;19;20689;-78
2022/04/28 12:06:51;;;;;;;3.55;3.13;;;22.50;35.90;;;;;;7374608;19;20015;-77
2022/04/28 12:14:46;;;;;;;4.95;2.55;;;22.50;36.10;;;;;;7369757;19;20026;-78
2022/04/28 12:19:59;;;;;;;3.92;2.38;;;22.60;34.40;;;;;;7395700;19;20022;-78
2022/04/28 12:22:30;;;;;;;4.40;2.60;;;22.70;34.20;;;;;;7370767;19;20105;-77
2022/04/28 12:25:08;;;;;;;5.65;2.58;;;22.70;34.10;;;;;;7372434;19;20011;-77
2022/04/28 12:27:43;;;;;;;2.95;2.45;;;22.70;34.50;;;;;;7368625;19;20022;-77
2022/04/28 12:30:13;;;;;;;3.70;2.60;;;22.80;34.10;;;;;;7369836;19;20019;-77
2022/04/28 12:32:48;;;;;;;6.97;2.97;;;22.80;33.30;;;;;;7373251;19;20118;-78
2022/04/28 12:35:24;;;;;;;3.28;2.50;;;22.80;33.20;;;;;;7372672;19;20063;-79
2022/04/28 12:37:57;;;;;;;3.65;2.65;;;22.90;33.00;;;;;;7394579;19;20109;-78
2022/04/28 12:40:39;;;;;;;5.10;2.75;;;22.90;33.00;;;;;;7373332;19;20011;-79
2022/04/28 12:43:09;;;;;;;3.22;2.40;;;23.00;33.30;;;;;;7370807;19;20343;-77
2022/04/28 12:45:51;;;;;;;3.90;2.78;;;23.10;33.40;;;;;;7369739;19;20053;-77
2022/04/28 12:48:31;;;;;;;5.50;2.50;;;23.20;33.50;;;;;;7368931;19;20015;-77
2022/04/28 12:51:17;;;;;;;4.20;2.80;;;23.20;32.70;;;;;;7370474;19;20646;-76
2022/04/28 12:53:48;;;;;;;2.97;2.67;;;23.20;32.60;;;;;;7367058;19;20044;-78
2022/04/28 12:56:20;;;;;;;5.60;2.75;;;23.10;32.80;;;;;;7370857;19;20081;-79
2022/04/28 12:58:51;;;;;;;7.25;2.90;;;23.20;32.70;;;;;;7394273;19;20014;-77
2022/04/28 13:01:22;;;;;;;6.32;2.85;;;23.20;33.00;;;;;;7371169;19;20025;-77
2022/04/28 13:03:59;;;;;;;6.88;2.90;;;23.20;33.10;;;;;;7369362;19;20057;-77
2022/04/28 13:06:29;;;;;;;6.03;2.20;;;23.20;33.20;;;;;;7372440;19;20097;-77
2022/04/28 13:09:00;;;;;;;4.00;2.42;;;23.30;33.10;;;;;;7370628;19;20114;-77
2022/04/28 13:11:33;;;;;;;4.55;2.65;;;23.20;32.90;;;;;;7370052;19;20074;-78
2022/04/28 13:14:04;;;;;;;3.72;2.60;;;23.20;32.90;;;;;;7374370;19;20018;-78
2022/04/28 13:16:33;;;;;;;4.10;2.60;;;23.20;32.40;;;;;;7391105;19;20015;-77
2022/04/28 13:19:02;;;;;;;4.93;2.67;;;23.20;32.70;;;;;;7369506;19;20073;-77
2022/04/28 13:21:31;;;;;;;6.72;2.40;;;23.20;32.70;;;;;;7369663;19;20090;-77
2022/04/28 13:24:00;;;;;;;4.90;3.58;;;23.20;32.60;;;;;;7370903;19;20754;-77
2022/04/28 13:26:32;;;;;;;4.03;2.92;;;23.30;32.20;;;;;;7371294;19;20118;-77
2022/04/28 13:29:05;;;;;;;5.20;3.00;;;23.30;31.80;;;;;;7380240;19;20038;-78
2022/04/28 13:31:35;;;;;;;5.00;2.45;;;23.40;32.70;;;;;;7390796;19;20031;-77
2022/04/28 13:34:03;;;;;;;5.38;2.42;;;23.40;32.70;;;;;;7367772;19;20021;-77
2022/04/28 13:36:32;;;;;;;6.43;2.30;;;23.50;32.00;;;;;;7370978;19;20032;-78
2022/04/28 13:39:01;;;;;;;8.57;2.85;;;23.60;32.10;;;;;;7369728;19;20022;-78